createdAt,value
2019-04-12T00:00:39.133Z,2.72
2019-04-12T00:03:06.989Z,3.08
2019-04-12T00:05:34.853Z,2.80
2019-04-12T00:08:02.706Z,2.60
2019-04-12T00:10:30.669Z,2.90
2019-04-12T00:12:58.581Z,2.72
2019-04-12T00:15:26.486Z,2.60
2019-04-12T00:17:54.317Z,3.37
2019-04-12T00:20:22.166Z,2.72
2019-04-12T00:22:50.011Z,3.05
2019-04-12T00:25:18.080Z,2.85
2019-04-12T00:27:48.731Z,2.95
2019-04-12T00:30:15.682Z,2.72
2019-04-12T00:32:43.675Z,2.30
2019-04-12T00:35:11.604Z,2.80
2019-04-12T00:40:26.483Z,2.67
2019-04-12T00:42:54.314Z,2.52
2019-04-12T00:45:22.141Z,2.35
2019-04-12T00:47:50.017Z,2.90
2019-04-12T00:50:17.906Z,3.00
2019-04-12T00:52:45.793Z,2.27
2019-04-12T00:55:13.641Z,2.92
2019-04-12T00:57:45.398Z,2.25
2019-04-12T01:00:11.215Z,2.50
2019-04-12T01:02:58.131Z,2.50
2019-04-12T01:05:28.158Z,2.20
2019-04-12T01:08:15.012Z,1.95
2019-04-12T01:10:42.853Z,2.85
2019-04-12T01:13:10.802Z,2.83
2019-04-12T01:18:27.567Z,2.50
2019-04-12T01:20:55.541Z,2.12
2019-04-12T01:23:23.460Z,2.15
2019-04-12T01:25:51.284Z,3.52
2019-04-12T01:28:19.115Z,2.98
2019-04-12T01:30:46.945Z,2.55
2019-04-12T01:33:14.926Z,3.20
2019-04-12T01:35:42.888Z,2.72
2019-04-12T01:38:10.765Z,2.40
2019-04-12T01:40:38.597Z,2.40
2019-04-12T01:43:06.484Z,2.47
2019-04-12T01:45:34.357Z,2.90
2019-04-12T01:48:02.173Z,2.27
2019-04-12T01:50:30.017Z,2.55
2019-04-12T01:52:57.855Z,2.80
2019-04-12T01:55:25.686Z,2.15
2019-04-12T01:57:53.524Z,2.45
2019-04-12T02:00:21.385Z,2.47
2019-04-12T02:02:49.583Z,2.45
2019-04-12T02:05:19.272Z,2.83
2019-04-12T02:07:47.006Z,2.87
2019-04-12T02:10:14.877Z,2.67
2019-04-12T02:12:42.683Z,2.90
2019-04-12T02:15:10.751Z,2.50
2019-04-12T02:17:38.574Z,2.10
2019-04-12T02:20:06.917Z,2.08
2019-04-12T02:22:34.791Z,3.00
2019-04-12T02:25:02.626Z,2.45
2019-04-12T02:27:30.437Z,2.75
2019-04-12T02:29:58.281Z,2.75
2019-04-12T02:32:33.559Z,2.80
2019-04-12T02:35:21.871Z,2.92
2019-04-12T02:37:49.725Z,2.80
2019-04-12T02:40:17.592Z,2.60
2019-04-12T02:42:45.606Z,3.10
2019-04-12T02:53:56.779Z,3.10
2019-04-12T02:56:46.262Z,2.95
2019-04-12T02:59:20.615Z,3.30
2019-04-12T03:01:49.295Z,3.30
2019-04-12T03:04:37.263Z,3.20
2019-04-12T03:07:07.502Z,2.90
2019-04-12T03:09:54.438Z,2.70
2019-04-12T03:12:43.156Z,3.72
2019-04-12T03:18:05.428Z,2.98
2019-04-12T03:20:53.835Z,2.90
2019-04-12T03:23:21.874Z,3.20
2019-04-12T03:29:16.556Z,3.00
2019-04-12T03:31:44.992Z,2.80
2019-04-12T03:34:12.865Z,3.37
2019-04-12T03:39:55.505Z,3.15
2019-04-12T03:42:23.443Z,3.10
2019-04-12T03:44:51.351Z,3.27
2019-04-12T03:47:19.336Z,3.12
2019-04-12T03:49:47.248Z,3.20
2019-04-12T03:52:15.235Z,3.33
2019-04-12T03:54:43.172Z,2.92
2019-04-12T03:57:13.390Z,3.20
2019-04-12T03:59:43.760Z,2.83
2019-04-12T04:02:18.185Z,3.65
2019-04-12T04:04:46.186Z,2.83
2019-04-12T04:07:26.844Z,3.15
2019-04-12T04:12:38.523Z,3.05
2019-04-12T04:15:09.447Z,2.85
2019-04-12T04:17:43.768Z,3.30
2019-04-12T04:26:23.247Z,3.40
2019-04-12T04:29:03.585Z,3.55
2019-04-12T04:31:54.508Z,3.08
2019-04-12T04:40:29.985Z,4.00
2019-04-12T04:42:58.031Z,3.72
2019-04-12T04:45:27.718Z,3.83
2019-04-12T04:50:49.725Z,3.52
2019-04-12T04:53:17.781Z,4.10
2019-04-12T04:56:05.597Z,3.45
2019-04-12T04:58:33.630Z,3.95
2019-04-12T05:03:56.899Z,4.03
2019-04-12T05:09:13.634Z,5.35
2019-04-12T05:14:16.815Z,4.42
2019-04-12T05:16:57.035Z,4.03
2019-04-12T05:19:14.642Z,3.80
2019-04-12T05:21:42.600Z,4.00
2019-04-12T05:24:10.490Z,3.10
2019-04-12T05:26:45.460Z,4.58
2019-04-12T05:29:08.073Z,3.75
2019-04-12T05:31:36.050Z,4.28
2019-04-12T05:34:03.975Z,3.70
2019-04-12T05:36:31.857Z,4.65
2019-04-12T05:38:59.737Z,3.85
2019-04-12T05:41:28.794Z,4.00
2019-04-12T05:47:06.236Z,3.50
2019-04-12T05:49:53.081Z,4.05
2019-04-12T05:52:21.130Z,4.03
2019-04-12T05:54:48.991Z,4.95
2019-04-12T05:57:16.895Z,4.92
2019-04-12T05:59:44.758Z,4.53
2019-04-12T06:02:33.110Z,4.40
2019-04-12T06:05:00.950Z,4.42
2019-04-12T06:07:28.793Z,4.40
2019-04-12T06:09:56.711Z,4.45
2019-04-12T06:12:24.755Z,4.25
2019-04-12T06:14:52.762Z,4.22
2019-04-12T06:17:20.601Z,4.72
2019-04-12T06:22:56.730Z,4.85
2019-04-12T06:25:27.803Z,5.80
2019-04-12T06:27:56.317Z,5.30
2019-04-12T06:30:43.158Z,5.50
2019-04-12T06:33:10.993Z,5.50
2019-04-12T06:35:38.814Z,4.92
2019-04-12T06:38:06.654Z,4.90
2019-04-12T06:40:34.506Z,6.12
2019-04-12T06:43:02.333Z,5.58
2019-04-12T06:45:30.244Z,4.60
2019-04-12T06:47:58.094Z,4.92
2019-04-12T06:50:44.912Z,4.58
2019-04-12T06:53:12.842Z,4.75
2019-04-12T06:55:59.635Z,5.70
2019-04-12T06:58:27.539Z,5.45
2019-04-12T07:04:03.162Z,5.80
2019-04-12T07:06:30.985Z,5.40
2019-04-12T07:08:58.826Z,5.50
2019-04-12T07:11:26.623Z,4.47
2019-04-12T07:13:54.493Z,5.45
2019-04-12T07:16:22.300Z,5.65
2019-04-12T07:18:50.143Z,6.15
2019-04-12T07:21:17.966Z,5.33
2019-04-12T07:23:45.793Z,5.45
2019-04-12T07:26:20.654Z,6.55
2019-04-12T07:28:48.451Z,6.05
2019-04-12T07:31:16.265Z,5.37
2019-04-12T07:33:44.093Z,6.87
2019-04-12T07:36:11.962Z,5.60
2019-04-12T07:38:39.849Z,5.67
2019-04-12T07:41:07.686Z,6.28
2019-04-12T07:43:35.574Z,5.78
2019-04-12T07:46:03.385Z,6.35
2019-04-12T07:48:31.227Z,5.87
2019-04-12T07:54:06.836Z,6.12
2019-04-12T07:56:34.849Z,6.28
2019-04-12T07:59:21.741Z,5.30
2019-04-12T08:02:08.718Z,5.12
2019-04-12T08:04:46.543Z,6.05
2019-04-12T08:07:33.381Z,5.70
2019-04-12T08:10:01.218Z,4.85
2019-04-12T08:12:29.053Z,4.95
2019-04-12T08:14:56.876Z,4.72
2019-04-12T08:17:24.713Z,4.95
2019-04-12T08:19:52.542Z,5.05
2019-04-12T08:22:20.373Z,5.45
2019-04-12T08:24:48.208Z,8.45
2019-04-12T08:27:16.083Z,4.65
2019-04-12T08:29:44.047Z,5.70
2019-04-12T08:32:11.849Z,4.90
2019-04-12T08:34:39.753Z,5.08
2019-04-12T08:37:07.617Z,4.30
2019-04-12T08:39:35.545Z,4.15
2019-04-12T08:42:03.338Z,3.95
2019-04-12T08:44:31.206Z,3.95
2019-04-12T08:46:59.076Z,4.92
2019-04-12T08:49:27.072Z,4.37
2019-04-12T08:51:55.009Z,4.28
2019-04-12T08:54:22.920Z,3.87
2019-04-12T08:56:50.781Z,4.67
2019-04-12T08:59:18.755Z,4.17
2019-04-12T09:01:46.605Z,4.17
2019-04-12T09:04:14.486Z,4.10
2019-04-12T09:06:42.306Z,3.45
2019-04-12T09:09:11.562Z,2.42
2019-04-12T09:11:39.594Z,2.40
2019-04-12T09:14:07.584Z,3.17
2019-04-12T09:16:35.424Z,3.08
2019-04-12T09:21:47.771Z,3.08
2019-04-12T09:24:34.976Z,2.47
2019-04-12T09:27:03.023Z,2.70
2019-04-12T09:29:31.010Z,2.30
2019-04-12T09:32:00.696Z,6.65
2019-04-12T09:34:28.953Z,2.30
2019-04-12T09:37:15.901Z,2.50
2019-04-12T09:39:46.420Z,2.50
2019-04-12T09:42:14.240Z,3.40
2019-04-12T09:44:42.081Z,3.10
2019-04-12T09:47:09.936Z,3.15
2019-04-12T09:49:37.771Z,3.35
2019-04-12T09:52:05.637Z,2.90
2019-04-12T09:54:35.826Z,3.12
2019-04-12T09:57:03.713Z,2.55
2019-04-12T09:59:31.710Z,2.58
2019-04-12T10:02:22.407Z,2.85
2019-04-12T10:10:25.808Z,2.83
2019-04-12T10:12:53.856Z,2.65
2019-04-12T10:15:40.887Z,2.60
2019-04-12T10:18:11.350Z,2.55
2019-04-12T10:20:39.340Z,2.83
2019-04-12T10:25:58.305Z,2.77
2019-04-12T10:28:26.755Z,2.52
2019-04-12T10:30:54.843Z,2.47
2019-04-12T10:33:22.968Z,3.30
2019-04-12T10:35:51.120Z,3.12
2019-04-12T10:38:21.686Z,2.55
2019-04-12T10:40:49.656Z,2.55
2019-04-12T10:43:36.753Z,2.95
2019-04-12T10:46:23.648Z,2.52
2019-04-12T10:49:10.490Z,2.27
2019-04-12T10:51:48.043Z,3.10
2019-04-12T10:54:34.939Z,3.08
2019-04-12T10:57:02.914Z,3.00
2019-04-12T10:59:31.142Z,3.72
2019-04-12T11:01:59.445Z,3.08
2019-04-12T11:04:27.333Z,3.17
2019-04-12T11:06:57.498Z,5.90
2019-04-12T11:09:25.379Z,4.45
2019-04-12T11:11:53.295Z,3.62
2019-04-12T11:17:10.107Z,3.90
2019-04-12T11:19:39.974Z,3.87
2019-04-12T11:25:02.290Z,3.60
2019-04-12T11:27:30.529Z,3.30
2019-04-12T11:29:58.421Z,3.10
2019-04-12T11:32:26.285Z,3.37
2019-04-12T11:34:54.187Z,3.10
2019-04-12T11:37:22.083Z,3.27
2019-04-12T11:39:51.754Z,2.70
2019-04-12T11:42:20.175Z,2.80
2019-04-12T11:44:49.242Z,3.08
2019-04-12T11:47:37.629Z,2.77
2019-04-12T11:50:24.866Z,2.90
2019-04-12T11:52:52.848Z,3.40
2019-04-12T11:55:20.747Z,3.33
2019-04-12T11:57:48.695Z,2.92
2019-04-12T12:00:36.990Z,2.62
2019-04-12T12:03:23.843Z,3.17
2019-04-12T12:06:10.671Z,3.50
2019-04-12T12:08:57.588Z,3.05
2019-04-12T12:11:44.473Z,2.62
2019-04-12T12:14:31.360Z,2.75
2019-04-12T12:17:18.207Z,3.37
2019-04-12T12:19:46.159Z,3.12
2019-04-12T12:22:16.244Z,3.83
2019-04-12T12:24:43.685Z,2.90
2019-04-12T12:27:11.539Z,3.30
2019-04-12T12:29:42.698Z,3.58
2019-04-12T12:32:09.001Z,3.33
2019-04-12T12:34:37.192Z,3.45
2019-04-12T12:37:05.066Z,3.58
2019-04-12T12:39:32.969Z,3.55
2019-04-12T12:42:00.819Z,3.77
2019-04-12T12:44:28.653Z,4.55
2019-04-12T12:46:56.508Z,3.90
2019-04-12T12:49:24.299Z,3.40
2019-04-12T12:51:52.151Z,4.03
2019-04-12T12:54:20.041Z,3.50
2019-04-12T12:56:47.866Z,3.58
2019-04-12T12:59:15.680Z,4.40
2019-04-12T13:01:43.527Z,4.10
2019-04-12T13:04:11.335Z,4.00
2019-04-12T13:06:39.612Z,4.37
2019-04-12T13:12:15.061Z,3.83
2019-04-12T13:14:42.894Z,3.75
2019-04-12T13:17:10.749Z,3.83
2019-04-12T13:19:38.822Z,3.60
2019-04-12T13:22:06.702Z,3.83
2019-04-12T13:24:34.506Z,3.37
2019-04-12T13:27:02.360Z,3.60
2019-04-12T13:29:30.214Z,3.55
2019-04-12T13:32:17.079Z,5.12
2019-04-12T13:37:56.261Z,6.25
2019-04-12T13:40:43.150Z,5.05
2019-04-12T13:43:21.423Z,5.00
2019-04-12T13:45:49.262Z,6.35
2019-04-12T13:48:17.140Z,6.50
2019-04-12T13:50:45.029Z,5.28
2019-04-12T13:53:12.865Z,4.65
2019-04-12T13:55:40.876Z,5.47
2019-04-12T13:58:08.748Z,5.17
2019-04-12T14:00:36.602Z,4.90
2019-04-12T14:03:04.516Z,5.00
2019-04-12T14:05:32.329Z,5.10
2019-04-12T14:08:00.195Z,4.97
2019-04-12T14:10:28.039Z,4.53
2019-04-12T14:13:02.534Z,4.67
2019-04-12T14:15:26.831Z,5.53
2019-04-12T14:17:55.160Z,4.90
2019-04-12T14:20:23.182Z,4.85
2019-04-12T14:22:51.054Z,5.00
2019-04-12T14:25:18.889Z,4.17
2019-04-12T14:27:46.762Z,4.33
2019-04-12T14:30:32.729Z,4.75
2019-04-12T14:32:57.998Z,4.50
2019-04-12T14:35:45.082Z,5.20
2019-04-12T14:38:31.941Z,4.85
2019-04-12T14:40:59.837Z,4.00
2019-04-12T14:43:46.686Z,4.87
2019-04-12T14:46:33.593Z,4.15
2019-04-12T14:49:01.480Z,4.50
2019-04-12T14:51:29.419Z,4.55
2019-04-12T14:53:57.366Z,4.67
2019-04-12T14:56:25.165Z,4.47
2019-04-12T14:58:53.068Z,5.20
2019-04-12T15:01:20.890Z,4.33
2019-04-12T15:03:48.768Z,4.45
2019-04-12T15:06:16.680Z,4.70
2019-04-12T15:08:44.518Z,4.28
2019-04-12T15:11:12.385Z,4.92
2019-04-12T15:13:40.218Z,4.35
2019-04-12T15:16:08.083Z,5.10
2019-04-12T15:18:35.907Z,4.62
2019-04-12T15:21:03.780Z,4.60
2019-04-12T15:23:31.590Z,5.03
2019-04-12T15:28:53.558Z,4.37
2019-04-12T15:31:21.497Z,4.50
2019-04-12T15:33:49.354Z,4.05
2019-04-12T15:36:17.290Z,4.55
2019-04-12T15:38:45.180Z,4.47
2019-04-12T15:41:13.062Z,5.15
2019-04-12T15:43:40.938Z,5.00
2019-04-12T15:46:08.995Z,5.65
2019-04-12T15:51:25.806Z,7.05
2019-04-12T15:53:55.587Z,5.12
2019-04-12T15:56:23.721Z,5.15
2019-04-12T15:59:11.335Z,4.65
2019-04-12T16:01:58.426Z,6.10
2019-04-12T16:04:26.435Z,4.90
2019-04-12T16:06:54.566Z,4.65
2019-04-12T16:09:44.035Z,4.10
2019-04-12T16:12:25.755Z,4.78
2019-04-12T16:17:59.704Z,4.50
2019-04-12T16:20:27.604Z,4.55
2019-04-12T16:22:55.523Z,5.50
2019-04-12T16:25:23.385Z,5.47
2019-04-12T16:31:05.341Z,4.50
2019-04-12T16:33:52.241Z,5.15
2019-04-12T16:36:39.171Z,5.17
2019-04-12T16:39:13.776Z,4.80
2019-04-12T16:41:41.756Z,5.90
2019-04-12T16:44:09.709Z,5.10
2019-04-12T16:46:37.651Z,5.20
2019-04-12T16:49:07.812Z,5.55
2019-04-12T16:51:35.674Z,5.10
2019-04-12T16:54:03.585Z,5.85
2019-04-12T16:56:31.490Z,5.40
2019-04-12T16:58:59.410Z,5.17
2019-04-12T17:01:36.628Z,5.25
2019-04-12T17:03:57.310Z,4.90
2019-04-12T17:06:27.381Z,6.25
2019-04-12T17:11:49.862Z,6.25
2019-04-12T17:14:18.973Z,5.50
2019-04-12T17:16:46.911Z,5.62
2019-04-12T17:19:17.231Z,6.10
2019-04-12T17:21:45.627Z,6.22
2019-04-12T17:24:13.625Z,7.45
2019-04-12T17:29:30.461Z,5.25
2019-04-12T17:32:17.466Z,5.40
2019-04-12T17:34:52.882Z,6.80
2019-04-12T17:37:44.244Z,6.15
2019-04-12T17:40:31.288Z,5.75
2019-04-12T17:42:59.384Z,5.30
2019-04-12T17:45:27.400Z,16.73
2019-04-12T17:47:55.359Z,11.03
2019-04-12T17:53:41.080Z,5.83
2019-04-12T17:56:28.253Z,4.65
2019-04-12T17:58:56.864Z,4.10
2019-04-12T18:01:45.608Z,3.83
2019-04-12T18:04:35.166Z,3.87
2019-04-12T18:12:46.834Z,4.60
2019-04-12T18:15:05.068Z,3.80
2019-04-12T18:17:33.633Z,3.42
2019-04-12T18:22:56.601Z,4.05
2019-04-12T18:25:25.918Z,5.50
2019-04-12T18:27:54.195Z,4.70
2019-04-12T18:30:22.250Z,5.50
2019-04-12T18:32:51.063Z,5.00
2019-04-12T18:35:19.221Z,5.10
2019-04-12T18:37:48.095Z,4.55
2019-04-12T18:43:05.055Z,5.12
2019-04-12T18:48:24.325Z,5.45
2019-04-12T18:54:06.247Z,5.10
2019-04-12T18:56:34.273Z,5.45
2019-04-12T18:59:02.700Z,5.30
2019-04-12T19:04:56.804Z,6.30
2019-04-12T19:06:58.612Z,4.72
2019-04-12T19:12:34.596Z,6.20
2019-04-12T19:17:50.047Z,5.67
2019-04-12T19:20:39.710Z,6.08
2019-04-12T19:32:25.031Z,6.03
2019-04-12T19:34:56.715Z,5.40
2019-04-12T19:37:24.570Z,5.50
2019-04-12T19:40:01.193Z,5.40
2019-04-12T19:42:50.039Z,6.08
2019-04-12T19:45:38.624Z,5.75
2019-04-12T19:48:09.426Z,7.25
2019-04-12T19:50:38.633Z,5.92
2019-04-12T19:55:54.608Z,6.00
2019-04-12T19:58:45.135Z,7.22
2019-04-12T20:01:14.640Z,6.17
2019-04-12T20:11:53.732Z,6.20
2019-04-12T20:20:10.955Z,6.50
2019-04-12T20:31:04.177Z,6.12
2019-04-12T20:36:21.526Z,5.62
2019-04-12T20:38:57.121Z,7.00
2019-04-12T20:47:27.151Z,5.42
2019-04-12T20:52:29.349Z,6.72
2019-04-12T20:54:57.544Z,6.62
2019-04-12T20:57:25.617Z,5.90
2019-04-12T21:02:42.311Z,5.97
2019-04-12T21:05:29.493Z,5.62
2019-04-12T21:08:16.587Z,6.20
2019-04-12T21:10:44.534Z,6.92
2019-04-12T21:13:12.896Z,6.90
2019-04-12T21:15:59.914Z,6.67
2019-04-12T21:18:30.658Z,6.22
2019-04-12T21:21:19.074Z,6.65
2019-04-12T21:23:47.028Z,6.05
2019-04-12T21:26:15.348Z,6.20
2019-04-12T21:28:43.281Z,6.30
2019-04-12T21:31:13.243Z,6.45
2019-04-12T21:33:41.240Z,6.22
2019-04-12T21:36:11.225Z,5.67
2019-04-12T21:38:39.225Z,6.55
2019-04-12T21:41:07.464Z,6.40
2019-04-12T21:43:54.551Z,5.40
2019-04-12T21:46:22.616Z,5.37
2019-04-12T21:51:28.748Z,6.40
2019-04-12T21:53:57.141Z,5.55
2019-04-12T21:56:28.013Z,6.58
2019-04-12T22:01:31.221Z,5.85
2019-04-12T22:03:59.791Z,6.00
2019-04-12T22:06:30.183Z,6.15
2019-04-12T22:09:01.033Z,7.22
2019-04-12T22:11:49.961Z,6.92
2019-04-12T22:16:53.533Z,6.70
2019-04-12T22:19:21.883Z,7.15
2019-04-12T22:21:49.905Z,6.65
2019-04-12T22:24:22.176Z,6.83
2019-04-12T22:26:52.550Z,7.03
2019-04-12T22:29:20.935Z,8.30
2019-04-12T22:37:38.870Z,7.12
2019-04-12T22:40:09.740Z,7.60
2019-04-12T22:42:37.730Z,6.80
2019-04-12T22:45:05.927Z,8.00
2019-04-12T22:47:33.799Z,7.40
2019-04-12T22:50:01.781Z,7.40
2019-04-12T22:52:29.801Z,7.80
2019-04-12T22:57:35.682Z,6.47
2019-04-12T23:02:38.107Z,6.65
2019-04-12T23:05:08.499Z,7.75
2019-04-12T23:07:36.475Z,5.80
2019-04-12T23:10:05.354Z,5.60
2019-04-12T23:15:40.834Z,6.65
2019-04-12T23:18:08.813Z,6.40
2019-04-12T23:20:36.781Z,7.28
2019-04-12T23:23:04.739Z,6.28
2019-04-12T23:28:34.301Z,6.05
2019-04-12T23:31:23.542Z,5.42
2019-04-12T23:34:17.053Z,5.40
2019-04-12T23:39:21.348Z,5.47
2019-04-12T23:41:49.427Z,5.87
2019-04-12T23:44:36.559Z,6.08
2019-04-12T23:49:59.318Z,5.83
2019-04-12T23:52:27.446Z,5.80
2019-04-12T23:54:55.387Z,5.50
2019-04-12T23:57:23.358Z,5.12
2019-04-12T23:59:58.786Z,6.70
